Time;durP1;ratioP1;P1;durP2;ratioP2;P2;SDS_P1;SDS_P2;PMS_P1;PMS_P2;Temp;Humidity;BMP_temperature;BMP_pressure;BME280_temperature;BME280_humidity;BME280_pressure;Samples;Min_cycle;Max_cycle;Signal;HPM_P1;HPM_P2
2022/03/10 00:00:35;;;;;;;;;;;20.20;34.00;;;;;;5061224;28;20374;-44
2022/03/10 00:03:04;;;;;;;;;;;20.20;34.00;;;;;;5029419;28;20015;-47
2022/03/10 00:05:31;;;;;;;;;;;20.20;34.00;;;;;;5030299;28;20331;-45
2022/03/10 00:07:58;;;;;;;;;;;20.20;34.00;;;;;;5053766;28;19920;-48
2022/03/10 00:10:24;;;;;;;;;;;20.20;33.90;;;;;;5061511;28;20396;-47
2022/03/10 00:12:52;;;;;;;;;;;20.20;34.00;;;;;;5030551;28;19942;-48
2022/03/10 00:15:19;;;;;;;;;;;20.20;33.90;;;;;;5041823;28;19920;-46
2022/03/10 00:17:46;;;;;;;;;;;20.20;33.90;;;;;;5049235;28;19928;-44
2022/03/10 00:20:14;;;;;;;;;;;20.20;33.90;;;;;;5055905;28;19931;-43
2022/03/10 00:22:45;;;;;;;;;;;20.20;34.00;;;;;;5035237;28;19921;-48
2022/03/10 00:25:11;;;;;;;;;;;20.20;33.90;;;;;;5060934;28;19972;-47
2022/03/10 00:27:38;;;;;;;;;;;20.20;33.90;;;;;;5046781;28;20360;-43
2022/03/10 00:30:05;;;;;;;;;;;20.20;33.90;;;;;;5042106;28;19927;-45
2022/03/10 00:32:32;;;;;;;;;;;20.20;33.90;;;;;;5036711;28;20079;-48
2022/03/10 00:34:59;;;;;;;;;;;20.20;33.90;;;;;;5035792;28;19931;-44
2022/03/10 00:37:28;;;;;;;;;;;20.20;33.90;;;;;;5051980;28;19925;-41
2022/03/10 00:39:55;;;;;;;;;;;20.20;33.90;;;;;;5047863;28;19973;-45
2022/03/10 00:42:22;;;;;;;;;;;20.20;33.80;;;;;;5040329;28;19921;-44
2022/03/10 00:44:48;;;;;;;;;;;20.20;33.80;;;;;;5052258;28;19931;-41
2022/03/10 00:47:15;;;;;;;;;;;20.20;33.90;;;;;;5045611;28;19920;-45
2022/03/10 00:49:42;;;;;;;;;;;20.20;33.90;;;;;;5038968;28;19921;-43
2022/03/10 00:52:09;;;;;;;;;;;20.20;33.80;;;;;;5061116;28;20017;-47
2022/03/10 00:54:39;;;;;;;;;;;20.20;33.80;;;;;;5036542;28;20011;-44
2022/03/10 00:57:08;;;;;;;;;;;20.20;33.80;;;;;;5054246;28;20385;-42
2022/03/10 00:59:37;;;;;;;;;;;20.20;33.80;;;;;;5044322;28;19920;-42
2022/03/10 01:02:04;;;;;;;;;;;20.10;33.70;;;;;;5048151;28;19920;-44
2022/03/10 01:04:30;;;;;;;;;;;20.10;33.70;;;;;;5045747;28;19938;-48
2022/03/10 01:06:57;;;;;;;;;;;20.20;33.80;;;;;;5034027;28;19951;-47
2022/03/10 01:09:27;;;;;;;;;;;20.20;33.80;;;;;;5054864;28;20019;-46
2022/03/10 01:11:55;;;;;;;;;;;20.10;33.70;;;;;;5051488;28;19943;-47
2022/03/10 01:14:22;;;;;;;;;;;20.10;33.70;;;;;;5050262;28;20006;-43
2022/03/10 01:16:49;;;;;;;;;;;20.10;33.70;;;;;;5060548;28;19920;-43
2022/03/10 01:19:18;;;;;;;;;;;20.20;33.80;;;;;;5040615;28;19925;-44
2022/03/10 01:21:45;;;;;;;;;;;20.20;33.80;;;;;;5034927;28;20080;-44
2022/03/10 01:24:14;;;;;;;;;;;20.10;33.70;;;;;;5037866;28;19967;-46
2022/03/10 01:26:40;;;;;;;;;;;20.10;33.70;;;;;;5046892;28;19931;-47
2022/03/10 01:29:13;;;;;;;;;;;20.10;33.60;;;;;;5035250;28;19924;-45
2022/03/10 01:31:40;;;;;;;;;;;20.10;33.70;;;;;;5047128;28;20353;-42
2022/03/10 01:34:06;;;;;;;;;;;20.10;33.60;;;;;;5046900;28;19921;-42
2022/03/10 01:36:33;;;;;;;;;;;20.10;33.70;;;;;;5037501;28;19956;-42
2022/03/10 01:39:03;;;;;;;;;;;20.10;33.70;;;;;;5051566;28;19920;-45
2022/03/10 01:41:30;;;;;;;;;;;20.10;33.60;;;;;;5048697;28;19971;-42
2022/03/10 01:43:57;;;;;;;;;;;20.10;33.60;;;;;;5067274;28;19929;-42
2022/03/10 01:46:25;;;;;;;;;;;20.10;33.60;;;;;;5051095;28;19921;-46
2022/03/10 01:48:51;;;;;;;;;;;20.10;33.60;;;;;;5048584;28;19925;-49
2022/03/10 01:51:18;;;;;;;;;;;20.10;33.60;;;;;;5039970;28;19920;-45
2022/03/10 01:53:45;;;;;;;;;;;20.10;33.60;;;;;;5035351;28;20040;-43
2022/03/10 01:56:11;;;;;;;;;;;20.10;33.60;;;;;;5044916;28;19925;-45
2022/03/10 01:58:38;;;;;;;;;;;20.10;33.60;;;;;;5038706;28;20358;-43
2022/03/10 02:01:04;;;;;;;;;;;20.10;33.60;;;;;;5039443;28;19940;-44
2022/03/10 02:03:56;;;;;;;;;;;20.10;33.60;;;;;;5031239;28;19939;-48
2022/03/10 02:06:23;;;;;;;;;;;20.10;33.50;;;;;;5058761;28;19924;-45
2022/03/10 02:11:34;;;;;;;;;;;20.10;33.60;;;;;;5039421;28;19925;-43
2022/03/10 02:17:19;;;;;;;;;;;20.10;33.50;;;;;;5059631;28;19973;-42
2022/03/10 02:19:37;;;;;;;;;;;20.10;33.50;;;;;;5042236;28;19928;-49
2022/03/10 02:22:07;;;;;;;;;;;20.10;33.50;;;;;;5053741;28;19920;-44
2022/03/10 02:24:34;;;;;;;;;;;20.10;33.50;;;;;;5065050;28;20015;-44
2022/03/10 02:27:01;;;;;;;;;;;20.10;33.50;;;;;;5047617;28;19963;-42
2022/03/10 02:29:28;;;;;;;;;;;20.10;33.60;;;;;;5031541;28;19921;-45
2022/03/10 02:31:54;;;;;;;;;;;20.10;33.50;;;;;;5065806;28;20377;-46
2022/03/10 02:34:22;;;;;;;;;;;20.10;33.50;;;;;;5050823;28;19921;-45
2022/03/10 02:36:49;;;;;;;;;;;20.10;33.60;;;;;;5053500;28;19921;-45
2022/03/10 02:39:17;;;;;;;;;;;20.10;33.50;;;;;;5036841;28;19928;-44
2022/03/10 02:41:43;;;;;;;;;;;20.10;33.50;;;;;;5030077;28;20104;-46
2022/03/10 02:44:10;;;;;;;;;;;20.10;33.50;;;;;;5048490;28;20420;-42
2022/03/10 02:46:37;;;;;;;;;;;20.10;33.50;;;;;;5061944;28;19927;-44
2022/03/10 02:49:04;;;;;;;;;;;20.10;33.50;;;;;;5033839;28;19983;-45
2022/03/10 02:51:33;;;;;;;;;;;20.10;33.50;;;;;;5049055;28;19927;-43
2022/03/10 02:54:00;;;;;;;;;;;20.10;33.50;;;;;;5050533;28;20126;-44
2022/03/10 02:56:28;;;;;;;;;;;20.10;33.50;;;;;;5047849;28;19954;-43
2022/03/10 02:58:55;;;;;;;;;;;20.10;33.50;;;;;;5059165;28;19920;-43
2022/03/10 03:01:21;;;;;;;;;;;20.10;33.50;;;;;;5038017;28;19921;-43
2022/03/10 03:03:48;;;;;;;;;;;20.10;33.50;;;;;;5031188;28;20326;-48
2022/03/10 03:06:15;;;;;;;;;;;20.10;33.50;;;;;;5037363;28;20424;-46
2022/03/10 03:08:42;;;;;;;;;;;20.10;33.50;;;;;;5038815;28;19931;-46
2022/03/10 03:11:10;;;;;;;;;;;20.10;33.50;;;;;;5044052;28;20385;-47
2022/03/10 03:13:38;;;;;;;;;;;20.10;33.50;;;;;;5050672;28;20396;-45
2022/03/10 03:16:05;;;;;;;;;;;20.10;33.50;;;;;;5038551;28;19921;-48
2022/03/10 03:18:32;;;;;;;;;;;20.10;33.50;;;;;;5049925;28;19921;-46
2022/03/10 03:20:59;;;;;;;;;;;20.10;33.50;;;;;;5035901;28;19967;-43
2022/03/10 03:23:25;;;;;;;;;;;20.10;33.50;;;;;;5067149;28;20019;-47
2022/03/10 03:25:52;;;;;;;;;;;20.10;33.50;;;;;;5040579;28;19924;-46
2022/03/10 03:28:21;;;;;;;;;;;20.10;33.50;;;;;;5043676;28;19924;-44
2022/03/10 03:30:49;;;;;;;;;;;20.10;33.40;;;;;;5033302;28;19928;-43
2022/03/10 03:33:16;;;;;;;;;;;20.10;33.50;;;;;;5038788;28;20265;-43
2022/03/10 03:35:42;;;;;;;;;;;20.10;33.50;;;;;;5046860;28;19925;-43
2022/03/10 03:38:11;;;;;;;;;;;20.10;33.50;;;;;;5034673;28;20428;-43
2022/03/10 03:40:38;;;;;;;;;;;20.10;33.50;;;;;;5045548;28;20472;-44
2022/03/10 03:43:04;;;;;;;;;;;20.10;33.50;;;;;;5053094;28;19961;-47
2022/03/10 03:45:39;;;;;;;;;;;20.10;33.50;;;;;;5044701;28;20137;-45
2022/03/10 03:48:07;;;;;;;;;;;20.10;33.50;;;;;;5053211;28;20417;-48
2022/03/10 03:50:34;;;;;;;;;;;20.10;33.60;;;;;;5047768;28;20094;-46
2022/03/10 03:53:01;;;;;;;;;;;20.10;33.60;;;;;;5052318;28;20023;-47
2022/03/10 03:55:28;;;;;;;;;;;20.10;33.60;;;;;;5043162;28;19920;-48
2022/03/10 03:57:55;;;;;;;;;;;20.10;33.60;;;;;;5034151;28;19929;-50
2022/03/10 04:00:21;;;;;;;;;;;20.10;33.60;;;;;;5038716;28;19920;-45
2022/03/10 04:02:48;;;;;;;;;;;20.10;33.60;;;;;;5030184;28;19951;-45
2022/03/10 04:05:17;;;;;;;;;;;20.10;33.60;;;;;;5040577;28;20019;-46
2022/03/10 04:07:43;;;;;;;;;;;20.10;33.60;;;;;;5048686;28;19921;-45
2022/03/10 04:10:10;;;;;;;;;;;20.10;33.60;;;;;;5031962;28;19952;-46
2022/03/10 04:12:37;;;;;;;;;;;20.10;33.60;;;;;;5041751;28;19974;-43
2022/03/10 04:15:04;;;;;;;;;;;20.10;33.60;;;;;;5035266;28;19921;-44
2022/03/10 04:17:31;;;;;;;;;;;20.10;33.60;;;;;;5044360;28;19920;-46
2022/03/10 04:19:59;;;;;;;;;;;20.10;33.60;;;;;;5030222;28;19979;-46
2022/03/10 04:22:27;;;;;;;;;;;20.10;33.70;;;;;;5039317;28;19921;-46
2022/03/10 04:24:53;;;;;;;;;;;20.10;33.60;;;;;;5030617;28;19980;-48
2022/03/10 04:27:20;;;;;;;;;;;20.10;33.60;;;;;;5029568;28;20373;-49
2022/03/10 04:29:49;;;;;;;;;;;20.10;33.60;;;;;;5046560;28;20003;-44
2022/03/10 04:32:15;;;;;;;;;;;20.10;33.60;;;;;;5036666;28;20445;-46
2022/03/10 04:34:42;;;;;;;;;;;20.10;33.60;;;;;;5048833;28;19950;-43
2022/03/10 04:37:09;;;;;;;;;;;20.10;33.60;;;;;;5032075;28;19921;-44
2022/03/10 04:39:37;;;;;;;;;;;20.10;33.60;;;;;;5057915;28;19943;-45
2022/03/10 04:42:04;;;;;;;;;;;20.10;33.60;;;;;;5052767;28;19920;-47
2022/03/10 04:44:31;;;;;;;;;;;20.10;33.60;;;;;;5053614;28;20019;-43
2022/03/10 04:46:58;;;;;;;;;;;20.10;33.60;;;;;;5047190;28;20015;-44
2022/03/10 04:49:24;;;;;;;;;;;20.10;33.60;;;;;;5051534;28;20258;-43
2022/03/10 04:51:51;;;;;;;;;;;20.10;33.60;;;;;;5069597;28;20023;-45
2022/03/10 04:54:18;;;;;;;;;;;20.10;33.60;;;;;;5052664;28;19927;-46
2022/03/10 04:56:47;;;;;;;;;;;20.10;33.60;;;;;;5048782;28;19971;-43
2022/03/10 04:59:14;;;;;;;;;;;20.10;33.60;;;;;;5035298;28;19932;-42
2022/03/10 05:01:41;;;;;;;;;;;20.10;33.60;;;;;;5063745;28;19921;-44
2022/03/10 05:04:08;;;;;;;;;;;20.10;33.60;;;;;;5040583;28;20002;-42
2022/03/10 05:06:35;;;;;;;;;;;20.10;33.60;;;;;;5050941;28;19931;-45
2022/03/10 05:09:01;;;;;;;;;;;20.10;33.60;;;;;;5032955;28;19921;-45
2022/03/10 05:11:28;;;;;;;;;;;20.10;33.50;;;;;;5039709;28;19942;-42
2022/03/10 05:13:58;;;;;;;;;;;20.10;33.60;;;;;;5062110;28;20015;-43
2022/03/10 05:16:25;;;;;;;;;;;20.10;33.60;;;;;;5057650;28;19937;-46
2022/03/10 05:18:52;;;;;;;;;;;20.10;33.60;;;;;;5033629;28;19974;-46
2022/03/10 05:21:18;;;;;;;;;;;20.10;33.60;;;;;;5034363;28;19952;-42
2022/03/10 05:23:45;;;;;;;;;;;20.10;33.60;;;;;;5053367;28;20355;-44
2022/03/10 05:26:12;;;;;;;;;;;20.10;33.60;;;;;;5045046;28;19920;-43
2022/03/10 05:28:39;;;;;;;;;;;20.10;33.60;;;;;;5018816;28;19924;-42
2022/03/10 05:31:07;;;;;;;;;;;20.10;33.50;;;;;;5035498;28;19929;-45
2022/03/10 05:33:35;;;;;;;;;;;20.10;33.60;;;;;;5039543;28;19985;-43
2022/03/10 05:36:01;;;;;;;;;;;20.10;33.50;;;;;;5039754;28;19944;-45
2022/03/10 05:38:31;;;;;;;;;;;20.10;33.50;;;;;;5066565;28;20035;-44
2022/03/10 05:40:59;;;;;;;;;;;20.10;33.60;;;;;;5058135;28;19924;-42
2022/03/10 05:43:26;;;;;;;;;;;20.10;33.50;;;;;;5052155;28;19928;-43
2022/03/10 05:45:53;;;;;;;;;;;20.10;33.60;;;;;;5042015;28;19920;-42
2022/03/10 05:48:21;;;;;;;;;;;20.10;33.50;;;;;;5039988;28;19921;-42
2022/03/10 05:50:48;;;;;;;;;;;20.10;33.50;;;;;;5049068;28;19982;-45
2022/03/10 05:53:14;;;;;;;;;;;20.10;33.50;;;;;;5046580;28;20349;-44
2022/03/10 05:55:43;;;;;;;;;;;20.10;33.50;;;;;;5042737;28;19984;-48
2022/03/10 05:58:09;;;;;;;;;;;20.10;33.50;;;;;;5031941;28;19924;-47
2022/03/10 06:00:36;;;;;;;;;;;20.00;33.50;;;;;;5033200;28;19967;-43
2022/03/10 06:03:03;;;;;;;;;;;20.10;33.50;;;;;;5048206;28;20019;-44
2022/03/10 06:05:31;;;;;;;;;;;20.10;33.50;;;;;;5045510;28;19921;-44
2022/03/10 06:07:58;;;;;;;;;;;20.10;33.50;;;;;;5054890;28;20396;-42
2022/03/10 06:10:25;;;;;;;;;;;20.10;33.50;;;;;;5046158;28;20035;-43
2022/03/10 06:12:52;;;;;;;;;;;20.00;33.50;;;;;;5049109;28;20013;-43
2022/03/10 06:15:18;;;;;;;;;;;20.00;33.40;;;;;;5042008;28;20088;-44
2022/03/10 06:17:45;;;;;;;;;;;20.10;33.50;;;;;;5041692;28;19920;-43
2022/03/10 06:20:12;;;;;;;;;;;20.00;33.40;;;;;;5042099;28;19991;-45
2022/03/10 06:22:40;;;;;;;;;;;20.10;33.50;;;;;;5062706;28;19925;-44
2022/03/10 06:25:09;;;;;;;;;;;20.10;33.50;;;;;;5040263;28;19931;-44
2022/03/10 06:27:36;;;;;;;;;;;20.10;33.50;;;;;;5039292;28;19921;-44
2022/03/10 06:30:03;;;;;;;;;;;20.10;33.50;;;;;;5041930;28;19921;-44
2022/03/10 06:32:30;;;;;;;;;;;20.00;33.40;;;;;;5045582;28;20312;-42
2022/03/10 06:34:59;;;;;;;;;;;20.10;33.50;;;;;;5042917;28;20019;-45
2022/03/10 06:37:27;;;;;;;;;;;20.10;33.50;;;;;;5023115;28;19939;-48
2022/03/10 06:39:56;;;;;;;;;;;20.10;33.50;;;;;;5031817;28;19932;-46
2022/03/10 06:42:23;;;;;;;;;;;20.10;33.50;;;;;;5048483;28;19964;-46
2022/03/10 06:44:49;;;;;;;;;;;20.10;33.40;;;;;;5040352;28;19975;-45
2022/03/10 06:47:16;;;;;;;;;;;20.00;33.40;;;;;;5047372;28;19960;-45
2022/03/10 06:49:43;;;;;;;;;;;20.00;33.40;;;;;;5049077;28;19920;-42
2022/03/10 06:52:10;;;;;;;;;;;20.00;33.40;;;;;;5047235;28;20286;-42
2022/03/10 06:54:37;;;;;;;;;;;20.10;33.50;;;;;;5049981;28;19920;-44
2022/03/10 06:57:05;;;;;;;;;;;20.10;33.50;;;;;;5058381;28;20374;-42
2022/03/10 06:59:32;;;;;;;;;;;20.10;33.50;;;;;;5035929;28;19920;-44
2022/03/10 07:01:59;;;;;;;;;;;20.00;33.40;;;;;;5039975;28;20269;-43
2022/03/10 07:04:26;;;;;;;;;;;20.10;33.50;;;;;;5040080;28;20007;-43
2022/03/10 07:06:53;;;;;;;;;;;20.10;33.40;;;;;;5048480;28;19920;-43
2022/03/10 07:09:19;;;;;;;;;;;20.10;33.40;;;;;;5057621;28;19921;-47
2022/03/10 07:11:46;;;;;;;;;;;20.10;33.40;;;;;;5044792;28;19924;-43
2022/03/10 07:14:14;;;;;;;;;;;20.10;33.30;;;;;;5050973;28;20388;-47
2022/03/10 07:16:41;;;;;;;;;;;20.10;33.30;;;;;;5033724;28;19942;-42
2022/03/10 07:19:09;;;;;;;;;;;20.10;33.30;;;;;;5039315;28;19920;-44
2022/03/10 07:21:37;;;;;;;;;;;20.10;33.30;;;;;;5048362;28;19932;-46
2022/03/10 07:24:04;;;;;;;;;;;20.10;33.20;;;;;;5038551;28;19924;-45
2022/03/10 07:26:31;;;;;;;;;;;20.00;33.20;;;;;;5029884;28;19959;-46
2022/03/10 07:28:59;;;;;;;;;;;20.10;33.20;;;;;;5037064;28;20366;-46
2022/03/10 07:31:27;;;;;;;;;;;20.10;33.20;;;;;;5047998;28;19925;-43
2022/03/10 07:33:54;;;;;;;;;;;20.00;33.10;;;;;;5047091;28;19920;-45
2022/03/10 07:36:21;;;;;;;;;;;20.00;33.10;;;;;;5032291;28;19921;-42
2022/03/10 07:38:47;;;;;;;;;;;20.10;33.20;;;;;;5057719;28;19966;-45
2022/03/10 07:41:14;;;;;;;;;;;20.00;33.10;;;;;;5036652;28;19920;-46
2022/03/10 07:43:41;;;;;;;;;;;20.10;33.20;;;;;;5055863;28;19966;-45
2022/03/10 07:46:08;;;;;;;;;;;20.10;33.20;;;;;;5040196;28;19924;-46
2022/03/10 07:48:36;;;;;;;;;;;20.00;33.10;;;;;;5040504;28;19928;-46
2022/03/10 07:51:03;;;;;;;;;;;20.00;33.10;;;;;;5047318;28;20023;-43
2022/03/10 07:53:32;;;;;;;;;;;20.00;33.10;;;;;;5047055;28;19925;-43
2022/03/10 07:55:58;;;;;;;;;;;20.10;33.20;;;;;;5036948;28;19928;-46
2022/03/10 07:58:26;;;;;;;;;;;20.10;33.10;;;;;;5048051;28;19931;-46
2022/03/10 08:00:54;;;;;;;;;;;20.00;33.00;;;;;;5061829;28;19944;-46
2022/03/10 08:03:20;;;;;;;;;;;20.00;33.00;;;;;;5052611;28;20300;-44
2022/03/10 08:05:49;;;;;;;;;;;20.10;33.20;;;;;;5070930;28;19925;-48
2022/03/10 08:08:16;;;;;;;;;;;20.10;33.20;;;;;;5049525;28;19988;-46
2022/03/10 08:10:42;;;;;;;;;;;20.00;33.10;;;;;;5033402;28;19928;-45
2022/03/10 08:13:09;;;;;;;;;;;20.00;33.10;;;;;;5029796;28;19924;-44
2022/03/10 08:15:36;;;;;;;;;;;20.10;33.20;;;;;;5039259;28;19921;-43
2022/03/10 08:18:03;;;;;;;;;;;20.00;33.10;;;;;;5040031;28;20455;-47
2022/03/10 08:20:29;;;;;;;;;;;20.00;33.20;;;;;;5052682;28;20020;-46
2022/03/10 08:22:58;;;;;;;;;;;20.10;33.30;;;;;;5034957;28;19925;-44
2022/03/10 08:25:25;;;;;;;;;;;20.10;33.30;;;;;;5057488;28;20427;-45
2022/03/10 08:27:52;;;;;;;;;;;20.10;33.30;;;;;;5054568;28;19970;-46
2022/03/10 08:30:18;;;;;;;;;;;20.10;33.30;;;;;;5037264;28;19924;-43
2022/03/10 08:32:45;;;;;;;;;;;20.10;33.30;;;;;;5056873;28;20241;-43
2022/03/10 08:35:12;;;;;;;;;;;20.10;33.40;;;;;;5036629;28;20373;-47
2022/03/10 08:37:39;;;;;;;;;;;20.10;33.40;;;;;;5053388;28;19925;-44
2022/03/10 08:40:08;;;;;;;;;;;20.10;33.40;;;;;;5060323;28;19924;-45
2022/03/10 08:42:36;;;;;;;;;;;20.10;33.40;;;;;;5038964;28;19951;-45
2022/03/10 08:45:03;;;;;;;;;;;20.10;33.40;;;;;;5038060;28;19956;-46
2022/03/10 08:47:29;;;;;;;;;;;20.10;33.50;;;;;;5037631;28;19928;-44
2022/03/10 08:49:56;;;;;;;;;;;20.20;33.60;;;;;;5038958;28;19921;-42
2022/03/10 08:52:23;;;;;;;;;;;20.10;33.50;;;;;;5044572;28;20025;-48
2022/03/10 08:54:50;;;;;;;;;;;20.20;33.60;;;;;;5039311;28;19954;-42
2022/03/10 08:57:18;;;;;;;;;;;20.10;33.50;;;;;;5037443;28;20361;-42
2022/03/10 08:59:45;;;;;;;;;;;20.10;33.50;;;;;;5056624;28;20296;-41
2022/03/10 09:02:12;;;;;;;;;;;20.20;33.70;;;;;;5040910;28;19921;-42
2022/03/10 09:04:38;;;;;;;;;;;20.20;33.80;;;;;;5043168;28;20094;-43
2022/03/10 09:07:05;;;;;;;;;;;20.20;34.30;;;;;;5057182;28;19959;-44
2022/03/10 09:09:32;;;;;;;;;;;20.20;33.70;;;;;;5058778;28;19920;-43
2022/03/10 09:11:59;;;;;;;;;;;20.20;33.80;;;;;;5041282;28;19991;-43
2022/03/10 09:14:27;;;;;;;;;;;20.20;33.80;;;;;;5044527;28;19978;-43
2022/03/10 09:16:54;;;;;;;;;;;20.20;33.80;;;;;;5043271;28;19990;-43
2022/03/10 09:19:21;;;;;;;;;;;20.20;33.80;;;;;;5043881;28;19921;-44
2022/03/10 09:21:48;;;;;;;;;;;20.20;33.80;;;;;;5038737;28;19927;-45
2022/03/10 09:24:14;;;;;;;;;;;20.20;33.80;;;;;;5041338;28;20285;-43
2022/03/10 09:26:41;;;;;;;;;;;20.20;33.80;;;;;;5059380;28;19963;-45
2022/03/10 09:29:08;;;;;;;;;;;20.20;33.80;;;;;;5043462;28;19920;-42
2022/03/10 09:31:36;;;;;;;;;;;20.20;33.80;;;;;;5063122;28;20022;-42
2022/03/10 09:34:04;;;;;;;;;;;20.30;33.90;;;;;;5044569;28;20010;-42
2022/03/10 09:36:31;;;;;;;;;;;20.30;33.90;;;;;;5042750;28;19924;-45
2022/03/10 09:38:57;;;;;;;;;;;20.30;33.90;;;;;;5064381;28;20018;-44
2022/03/10 09:41:28;;;;;;;;;;;20.20;33.80;;;;;;5069605;28;20014;-44
2022/03/10 09:43:55;;;;;;;;;;;20.30;33.90;;;;;;5069237;28;19928;-47
2022/03/10 09:46:22;;;;;;;;;;;20.20;33.90;;;;;;5052545;28;19932;-44
2022/03/10 09:48:50;;;;;;;;;;;20.30;34.00;;;;;;5048861;28;19951;-44
2022/03/10 09:51:17;;;;;;;;;;;20.30;34.00;;;;;;5059763;28;19924;-44
2022/03/10 09:53:44;;;;;;;;;;;20.30;34.00;;;;;;5042056;28;19921;-45
2022/03/10 09:56:11;;;;;;;;;;;20.30;34.00;;;;;;5043604;28;19931;-42
2022/03/10 09:58:38;;;;;;;;;;;20.30;34.10;;;;;;5042438;28;20024;-44
2022/03/10 10:01:06;;;;;;;;;;;20.30;34.10;;;;;;5042881;28;19931;-43
2022/03/10 10:03:33;;;;;;;;;;;20.30;34.10;;;;;;5042196;28;20399;-45
2022/03/10 10:06:02;;;;;;;;;;;20.30;34.70;;;;;;5057373;28;19920;-53
2022/03/10 10:08:30;;;;;;;;;;;20.30;34.10;;;;;;5041616;28;20337;-52
2022/03/10 10:10:59;;;;;;;;;;;20.30;34.10;;;;;;5041319;28;19925;-48
2022/03/10 10:13:27;;;;;;;;;;;20.30;33.90;;;;;;5042124;28;19935;-48
2022/03/10 10:15:55;;;;;;;;;;;20.30;33.70;;;;;;5040456;28;20274;-54
2022/03/10 10:18:22;;;;;;;;;;;20.30;33.50;;;;;;5040332;28;19927;-48
2022/03/10 10:20:49;;;;;;;;;;;20.30;33.30;;;;;;5041407;28;19972;-53
2022/03/10 10:23:18;;;;;;;;;;;20.30;33.10;;;;;;5043376;28;19928;-50
2022/03/10 10:25:51;;;;;;;;;;;20.20;33.00;;;;;;5039313;28;19927;-49
2022/03/10 10:28:22;;;;;;;;;;;20.20;32.90;;;;;;5043977;28;19928;-60
2022/03/10 10:30:53;;;;;;;;;;;20.20;32.80;;;;;;5041859;28;19921;-54
2022/03/10 10:33:19;;;;;;;;;;;20.20;32.80;;;;;;5044461;28;19948;-52
2022/03/10 10:35:47;;;;;;;;;;;20.20;32.70;;;;;;5042301;28;19925;-54
2022/03/10 10:38:13;;;;;;;;;;;20.20;32.70;;;;;;5040487;28;19940;-47
2022/03/10 10:40:43;;;;;;;;;;;20.20;32.60;;;;;;5052495;28;19931;-47
2022/03/10 10:43:09;;;;;;;;;;;20.20;32.60;;;;;;5038092;28;19963;-58
2022/03/10 10:45:36;;;;;;;;;;;20.20;32.50;;;;;;5041470;28;20017;-54
2022/03/10 10:48:04;;;;;;;;;;;20.20;32.50;;;;;;5036936;28;19921;-60
2022/03/10 10:50:31;;;;;;;;;;;20.10;32.50;;;;;;5042922;28;19971;-60
2022/03/10 10:52:57;;;;;;;;;;;20.10;32.50;;;;;;5039598;28;20051;-50
2022/03/10 10:55:35;;;;;;;;;;;20.10;32.50;;;;;;5039673;28;21435;-50
2022/03/10 10:58:07;;;;;;;;;;;20.10;32.50;;;;;;5040907;28;19920;-59
2022/03/10 11:00:41;;;;;;;;;;;20.10;32.50;;;;;;5024517;28;20384;-46
2022/03/10 11:03:18;;;;;;;;;;;20.10;32.50;;;;;;5044392;28;19920;-56
2022/03/10 11:05:45;;;;;;;;;;;20.10;32.50;;;;;;5035268;28;19943;-52
2022/03/10 11:08:12;;;;;;;;;;;20.10;32.40;;;;;;5057361;28;19927;-57
2022/03/10 11:10:39;;;;;;;;;;;20.10;32.50;;;;;;5037462;28;20085;-54
2022/03/10 11:13:06;;;;;;;;;;;20.10;32.40;;;;;;5039331;28;20015;-52
2022/03/10 11:15:34;;;;;;;;;;;20.00;32.30;;;;;;5057854;28;20019;-47
2022/03/10 11:18:00;;;;;;;;;;;20.00;32.30;;;;;;5058966;28;19924;-55
2022/03/10 11:20:27;;;;;;;;;;;20.10;32.50;;;;;;5055201;28;19996;-55
2022/03/10 11:22:56;;;;;;;;;;;20.10;32.40;;;;;;5038411;28;19940;-47
2022/03/10 11:25:27;;;;;;;;;;;20.00;32.30;;;;;;5037448;28;20277;-50
2022/03/10 11:27:54;;;;;;;;;;;20.00;32.30;;;;;;5038977;28;19931;-52
2022/03/10 11:30:24;;;;;;;;;;;20.10;32.40;;;;;;5038465;28;20318;-51
2022/03/10 11:33:01;;;;;;;;;;;20.00;32.30;;;;;;5045555;28;19931;-59
2022/03/10 11:35:30;;;;;;;;;;;20.00;32.30;;;;;;5038256;28;19920;-52
2022/03/10 11:37:56;;;;;;;;;;;20.10;32.30;;;;;;5037431;28;19928;-52
2022/03/10 11:40:40;;;;;;;;;;;20.10;32.30;;;;;;5038042;28;19951;-53
2022/03/10 11:43:06;;;;;;;;;;;20.00;32.20;;;;;;5039272;28;19933;-49
2022/03/10 11:45:33;;;;;;;;;;;20.10;32.20;;;;;;5040579;28;19924;-50
2022/03/10 11:48:29;;;;;;;;;;;20.10;32.20;;;;;;5041451;28;20022;-51
2022/03/10 11:50:57;;;;;;;;;;;20.00;32.20;;;;;;5004841;28;19925;-50
2022/03/10 11:53:24;;;;;;;;;;;20.00;32.10;;;;;;5039673;28;20390;-54
2022/03/10 11:55:52;;;;;;;;;;;20.00;32.00;;;;;;5037315;28;20461;-50
2022/03/10 11:58:19;;;;;;;;;;;20.00;32.00;;;;;;5040273;28;20364;-47
2022/03/10 12:00:52;;;;;;;;;;;20.10;32.00;;;;;;5037515;28;19927;-54
2022/03/10 12:03:19;;;;;;;;;;;20.00;31.90;;;;;;5052313;28;19964;-50
2022/03/10 12:05:53;;;;;;;;;;;20.00;31.90;;;;;;5044308;28;20086;-50
2022/03/10 12:08:21;;;;;;;;;;;20.00;31.80;;;;;;5057297;28;19921;-52
2022/03/10 12:10:48;;;;;;;;;;;20.00;30.70;;;;;;5055454;28;19926;-50
2022/03/10 12:13:22;;;;;;;;;;;20.00;29.20;;;;;;5041052;28;20034;-54
2022/03/10 12:15:55;;;;;;;;;;;19.90;28.20;;;;;;5038899;28;19948;-54
2022/03/10 12:18:42;;;;;;;;;;;19.80;27.80;;;;;;5053282;28;19948;-51
2022/03/10 12:21:16;;;;;;;;;;;19.70;27.10;;;;;;5039258;28;20435;-53
2022/03/10 12:23:47;;;;;;;;;;;19.60;26.90;;;;;;5039665;28;19925;-53
2022/03/10 12:26:14;;;;;;;;;;;19.50;27.10;;;;;;5036445;28;19920;-57
2022/03/10 12:28:42;;;;;;;;;;;19.40;26.70;;;;;;5039959;28;19929;-52
2022/03/10 12:31:10;;;;;;;;;;;19.40;26.30;;;;;;5042623;28;20007;-51
2022/03/10 12:33:41;;;;;;;;;;;19.30;25.90;;;;;;5040426;28;20338;-51
2022/03/10 12:36:09;;;;;;;;;;;19.20;26.20;;;;;;5034579;28;19956;-53
2022/03/10 12:38:37;;;;;;;;;;;19.10;26.00;;;;;;5062995;28;19999;-54
2022/03/10 12:41:05;;;;;;;;;;;19.10;26.00;;;;;;5062090;28;19924;-48
2022/03/10 12:43:32;;;;;;;;;;;19.00;26.10;;;;;;5047220;28;19924;-44
2022/03/10 12:45:58;;;;;;;;;;;19.00;26.20;;;;;;5046993;28;20213;-48
2022/03/10 12:48:26;;;;;;;;;;;19.00;26.60;;;;;;5043775;28;19982;-45
2022/03/10 12:50:54;;;;;;;;;;;18.90;27.20;;;;;;5038081;28;20349;-49
2022/03/10 12:53:20;;;;;;;;;;;19.00;27.70;;;;;;5056793;28;19921;-45
2022/03/10 12:55:54;;;;;;;;;;;19.00;28.00;;;;;;5060478;28;19920;-42
2022/03/10 12:58:29;;;;;;;;;;;19.00;28.40;;;;;;5042201;28;19935;-42
2022/03/10 13:01:04;;;;;;;;;;;19.10;28.80;;;;;;5040406;28;20391;-44
2022/03/10 13:03:34;;;;;;;;;;;19.10;29.00;;;;;;5049555;28;19921;-44
2022/03/10 13:06:02;;;;;;;;;;;19.20;29.40;;;;;;5063497;28;19931;-47
2022/03/10 13:08:29;;;;;;;;;;;19.20;29.60;;;;;;5045354;28;19928;-47
2022/03/10 13:10:58;;;;;;;;;;;19.30;29.80;;;;;;5043454;28;20130;-42
2022/03/10 13:13:29;;;;;;;;;;;19.40;30.00;;;;;;5059161;28;19971;-47
2022/03/10 13:15:59;;;;;;;;;;;19.40;30.00;;;;;;5039895;28;19960;-43
2022/03/10 13:18:26;;;;;;;;;;;19.50;30.30;;;;;;5063367;28;19920;-44
2022/03/10 13:20:54;;;;;;;;;;;19.50;30.40;;;;;;5047738;28;19994;-44
2022/03/10 13:23:24;;;;;;;;;;;19.60;30.60;;;;;;5048601;28;19924;-43
2022/03/10 13:25:51;;;;;;;;;;;19.60;30.70;;;;;;5061104;28;19924;-42
2022/03/10 13:28:18;;;;;;;;;;;19.60;30.80;;;;;;5062352;28;19931;-44
2022/03/10 13:30:46;;;;;;;;;;;19.70;31.00;;;;;;5041921;28;20420;-43
2022/03/10 13:33:13;;;;;;;;;;;19.70;31.10;;;;;;5058611;28;20371;-44
2022/03/10 13:35:40;;;;;;;;;;;19.70;31.20;;;;;;5058408;28;19928;-47
2022/03/10 13:38:07;;;;;;;;;;;19.80;31.30;;;;;;5045605;28;19998;-43
2022/03/10 13:40:34;;;;;;;;;;;19.80;31.40;;;;;;5045267;28;19935;-46
2022/03/10 13:43:02;;;;;;;;;;;19.80;31.50;;;;;;5060636;28;19920;-46
2022/03/10 13:45:31;;;;;;;;;;;19.80;31.50;;;;;;5044425;28;20027;-43
2022/03/10 13:47:59;;;;;;;;;;;19.90;31.70;;;;;;5049805;28;19931;-45
2022/03/10 13:50:27;;;;;;;;;;;19.90;31.70;;;;;;5045813;28;19921;-45
2022/03/10 13:52:58;;;;;;;;;;;19.90;31.80;;;;;;5043201;28;19970;-46
2022/03/10 13:55:28;;;;;;;;;;;19.90;32.00;;;;;;5041644;28;19924;-43
2022/03/10 13:57:54;;;;;;;;;;;19.90;32.10;;;;;;5048594;28;19928;-43
2022/03/10 14:00:25;;;;;;;;;;;20.00;32.20;;;;;;5064076;28;19974;-43
2022/03/10 14:02:52;;;;;;;;;;;20.00;32.30;;;;;;5043224;28;19921;-46
2022/03/10 14:05:21;;;;;;;;;;;20.00;32.30;;;;;;5047315;28;19920;-43
2022/03/10 14:07:54;;;;;;;;;;;20.00;32.40;;;;;;5043516;28;19928;-42
2022/03/10 14:10:29;;;;;;;;;;;20.00;32.40;;;;;;5064542;28;19996;-42
2022/03/10 14:12:57;;;;;;;;;;;20.10;32.50;;;;;;5044151;28;20023;-44
2022/03/10 14:15:27;;;;;;;;;;;20.10;32.50;;;;;;5060342;28;19978;-43
2022/03/10 14:17:55;;;;;;;;;;;20.10;32.60;;;;;;5064053;28;20019;-45
2022/03/10 14:20:24;;;;;;;;;;;20.10;32.60;;;;;;5045538;28;19924;-46
2022/03/10 14:22:51;;;;;;;;;;;20.10;32.60;;;;;;5044763;28;19951;-43
2022/03/10 14:25:18;;;;;;;;;;;20.10;32.60;;;;;;5043144;28;19970;-48